sensor_id;sensor_type;location;lat;lon;timestamp;P1;durP1;ratioP1;P2;durP2;ratioP2
75552;SDS011;64136;53.118;17.996;2023-02-24T00:01:36;39.70;;;15.80;;
75552;SDS011;64136;53.118;17.996;2023-02-24T00:04:05;47.00;;;20.00;;
75552;SDS011;64136;53.118;17.996;2023-02-24T00:06:35;33.50;;;13.80;;
75552;SDS011;64136;53.118;17.996;2023-02-24T00:09:06;29.80;;;12.80;;
75552;SDS011;64136;53.118;17.996;2023-02-24T00:11:36;35.40;;;17.30;;
75552;SDS011;64136;53.118;17.996;2023-02-24T00:14:05;47.30;;;21.10;;
75552;SDS011;64136;53.118;17.996;2023-02-24T00:16:37;37.80;;;18.40;;
75552;SDS011;64136;53.118;17.996;2023-02-24T00:19:04;34.70;;;13.90;;
75552;SDS011;64136;53.118;17.996;2023-02-24T00:21:32;38.30;;;17.70;;
75552;SDS011;64136;53.118;17.996;2023-02-24T00:24:00;41.20;;;19.30;;
75552;SDS011;64136;53.118;17.996;2023-02-24T00:26:28;42.10;;;18.80;;
75552;SDS011;64136;53.118;17.996;2023-02-24T00:28:55;39.10;;;19.50;;
75552;SDS011;64136;53.118;17.996;2023-02-24T00:31:25;35.60;;;16.10;;
75552;SDS011;64136;53.118;17.996;2023-02-24T00:33:56;30.80;;;12.30;;
75552;SDS011;64136;53.118;17.996;2023-02-24T00:36:29;36.60;;;18.00;;
75552;SDS011;64136;53.118;17.996;2023-02-24T00:38:59;37.60;;;15.40;;
75552;SDS011;64136;53.118;17.996;2023-02-24T00:41:29;39.40;;;15.70;;
75552;SDS011;64136;53.118;17.996;2023-02-24T00:43:58;34.00;;;16.30;;
75552;SDS011;64136;53.118;17.996;2023-02-24T00:49:02;26.30;;;12.00;;
75552;SDS011;64136;53.118;17.996;2023-02-24T00:51:36;27.70;;;13.10;;
75552;SDS011;64136;53.118;17.996;2023-02-24T00:54:07;32.20;;;15.50;;
75552;SDS011;64136;53.118;17.996;2023-02-24T00:56:35;35.80;;;16.30;;
75552;SDS011;64136;53.118;17.996;2023-02-24T00:59:02;31.40;;;14.80;;
75552;SDS011;64136;53.118;17.996;2023-02-24T01:01:30;28.50;;;13.10;;
75552;SDS011;64136;53.118;17.996;2023-02-24T01:04:00;25.30;;;11.00;;
75552;SDS011;64136;53.118;17.996;2023-02-24T01:06:38;40.00;;;17.60;;
75552;SDS011;64136;53.118;17.996;2023-02-24T01:09:08;27.50;;;10.20;;
75552;SDS011;64136;53.118;17.996;2023-02-24T01:11:37;28.30;;;11.70;;
75552;SDS011;64136;53.118;17.996;2023-02-24T01:14:25;33.40;;;14.90;;
75552;SDS011;64136;53.118;17.996;2023-02-24T01:16:54;29.90;;;11.40;;
75552;SDS011;64136;53.118;17.996;2023-02-24T01:19:22;36.10;;;14.80;;
75552;SDS011;64136;53.118;17.996;2023-02-24T01:22:00;37.10;;;18.10;;
75552;SDS011;64136;53.118;17.996;2023-02-24T01:24:33;32.50;;;14.00;;
75552;SDS011;64136;53.118;17.996;2023-02-24T01:27:01;34.40;;;17.00;;
75552;SDS011;64136;53.118;17.996;2023-02-24T01:29:31;30.60;;;13.80;;
75552;SDS011;64136;53.118;17.996;2023-02-24T01:32:02;35.50;;;15.80;;
75552;SDS011;64136;53.118;17.996;2023-02-24T01:34:29;21.10;;;9.70;;
75552;SDS011;64136;53.118;17.996;2023-02-24T01:36:56;33.00;;;12.90;;
75552;SDS011;64136;53.118;17.996;2023-02-24T01:39:23;21.20;;;10.30;;
75552;SDS011;64136;53.118;17.996;2023-02-24T01:41:50;30.20;;;13.30;;
75552;SDS011;64136;53.118;17.996;2023-02-24T01:47:24;24.00;;;12.30;;
75552;SDS011;64136;53.118;17.996;2023-02-24T01:49:55;37.10;;;15.70;;
75552;SDS011;64136;53.118;17.996;2023-02-24T01:52:24;29.80;;;14.50;;
75552;SDS011;64136;53.118;17.996;2023-02-24T01:54:57;35.90;;;13.30;;
75552;SDS011;64136;53.118;17.996;2023-02-24T01:57:38;25.00;;;11.30;;
75552;SDS011;64136;53.118;17.996;2023-02-24T02:00:07;26.40;;;11.70;;
75552;SDS011;64136;53.118;17.996;2023-02-24T02:02:40;25.40;;;12.10;;
75552;SDS011;64136;53.118;17.996;2023-02-24T02:05:11;26.70;;;10.00;;
75552;SDS011;64136;53.118;17.996;2023-02-24T02:07:38;34.60;;;13.50;;
75552;SDS011;64136;53.118;17.996;2023-02-24T02:10:07;37.00;;;15.20;;
75552;SDS011;64136;53.118;17.996;2023-02-24T02:15:02;29.20;;;10.80;;
75552;SDS011;64136;53.118;17.996;2023-02-24T02:17:36;26.80;;;11.60;;
75552;SDS011;64136;53.118;17.996;2023-02-24T02:20:25;25.40;;;9.20;;
75552;SDS011;64136;53.118;17.996;2023-02-24T02:26:10;24.10;;;10.20;;
75552;SDS011;64136;53.118;17.996;2023-02-24T02:40:20;28.40;;;12.50;;
75552;SDS011;64136;53.118;17.996;2023-02-24T02:45:39;30.80;;;13.80;;
75552;SDS011;64136;53.118;17.996;2023-02-24T02:50:55;29.70;;;12.70;;
75552;SDS011;64136;53.118;17.996;2023-02-24T02:53:38;32.90;;;13.70;;
75552;SDS011;64136;53.118;17.996;2023-02-24T02:56:14;29.60;;;11.30;;
75552;SDS011;64136;53.118;17.996;2023-02-24T02:58:47;20.70;;;8.50;;
75552;SDS011;64136;53.118;17.996;2023-02-24T03:01:18;24.30;;;10.00;;
75552;SDS011;64136;53.118;17.996;2023-02-24T03:03:52;27.30;;;11.80;;
75552;SDS011;64136;53.118;17.996;2023-02-24T03:06:23;24.60;;;9.20;;
75552;SDS011;64136;53.118;17.996;2023-02-24T03:08:57;25.60;;;10.70;;
75552;SDS011;64136;53.118;17.996;2023-02-24T03:11:39;30.50;;;13.60;;
75552;SDS011;64136;53.118;17.996;2023-02-24T03:14:15;24.90;;;9.60;;
75552;SDS011;64136;53.118;17.996;2023-02-24T03:16:44;29.20;;;11.90;;
75552;SDS011;64136;53.118;17.996;2023-02-24T03:20:00;22.50;;;10.10;;
75552;SDS011;64136;53.118;17.996;2023-02-24T03:22:40;26.40;;;11.40;;
75552;SDS011;64136;53.118;17.996;2023-02-24T03:25:11;27.40;;;10.80;;
75552;SDS011;64136;53.118;17.996;2023-02-24T03:27:41;26.90;;;11.10;;
75552;SDS011;64136;53.118;17.996;2023-02-24T03:30:16;30.70;;;13.00;;
75552;SDS011;64136;53.118;17.996;2023-02-24T03:32:48;28.80;;;10.60;;
75552;SDS011;64136;53.118;17.996;2023-02-24T03:35:25;33.80;;;13.00;;
75552;SDS011;64136;53.118;17.996;2023-02-24T03:37:55;29.60;;;11.60;;
75552;SDS011;64136;53.118;17.996;2023-02-24T03:40:22;24.40;;;9.00;;
75552;SDS011;64136;53.118;17.996;2023-02-24T03:42:57;25.80;;;9.90;;
75552;SDS011;64136;53.118;17.996;2023-02-24T03:45:36;21.20;;;8.60;;
75552;SDS011;64136;53.118;17.996;2023-02-24T03:50:32;27.60;;;9.80;;
75552;SDS011;64136;53.118;17.996;2023-02-24T04:01:50;30.30;;;11.60;;
75552;SDS011;64136;53.118;17.996;2023-02-24T04:07:13;24.80;;;9.80;;
75552;SDS011;64136;53.118;17.996;2023-02-24T04:09:48;26.00;;;9.30;;
75552;SDS011;64136;53.118;17.996;2023-02-24T04:12:27;22.70;;;8.50;;
75552;SDS011;64136;53.118;17.996;2023-02-24T04:17:52;23.60;;;8.10;;
75552;SDS011;64136;53.118;17.996;2023-02-24T04:20:24;23.60;;;9.20;;
75552;SDS011;64136;53.118;17.996;2023-02-24T04:25:41;28.30;;;11.60;;
75552;SDS011;64136;53.118;17.996;2023-02-24T04:28:10;27.40;;;10.80;;
75552;SDS011;64136;53.118;17.996;2023-02-24T04:30:43;24.80;;;9.50;;
75552;SDS011;64136;53.118;17.996;2023-02-24T04:33:13;26.20;;;9.30;;
75552;SDS011;64136;53.118;17.996;2023-02-24T04:35:40;19.10;;;7.70;;
75552;SDS011;64136;53.118;17.996;2023-02-24T04:38:10;20.40;;;8.10;;
75552;SDS011;64136;53.118;17.996;2023-02-24T04:40:37;29.40;;;10.70;;
75552;SDS011;64136;53.118;17.996;2023-02-24T04:43:05;18.80;;;7.20;;
75552;SDS011;64136;53.118;17.996;2023-02-24T04:45:32;27.30;;;9.50;;
75552;SDS011;64136;53.118;17.996;2023-02-24T04:48:00;22.80;;;8.90;;
75552;SDS011;64136;53.118;17.996;2023-02-24T04:50:29;22.50;;;9.30;;
75552;SDS011;64136;53.118;17.996;2023-02-24T04:52:59;26.50;;;8.50;;
75552;SDS011;64136;53.118;17.996;2023-02-24T04:55:28;25.00;;;9.60;;
75552;SDS011;64136;53.118;17.996;2023-02-24T04:57:58;23.30;;;9.30;;
75552;SDS011;64136;53.118;17.996;2023-02-24T05:00:27;30.40;;;11.80;;
75552;SDS011;64136;53.118;17.996;2023-02-24T05:03:01;21.90;;;8.30;;
75552;SDS011;64136;53.118;17.996;2023-02-24T05:05:31;22.70;;;7.50;;
75552;SDS011;64136;53.118;17.996;2023-02-24T05:08:03;26.40;;;9.80;;
75552;SDS011;64136;53.118;17.996;2023-02-24T05:10:37;17.70;;;7.40;;
75552;SDS011;64136;53.118;17.996;2023-02-24T05:13:12;24.70;;;9.40;;
75552;SDS011;64136;53.118;17.996;2023-02-24T05:15:40;29.20;;;11.40;;
75552;SDS011;64136;53.118;17.996;2023-02-24T05:20:39;25.20;;;8.80;;
75552;SDS011;64136;53.118;17.996;2023-02-24T05:23:10;26.70;;;9.90;;
75552;SDS011;64136;53.118;17.996;2023-02-24T05:25:37;22.80;;;8.90;;
75552;SDS011;64136;53.118;17.996;2023-02-24T05:28:04;25.40;;;10.10;;
75552;SDS011;64136;53.118;17.996;2023-02-24T05:30:31;23.30;;;8.90;;
75552;SDS011;64136;53.118;17.996;2023-02-24T05:33:00;27.80;;;9.80;;
75552;SDS011;64136;53.118;17.996;2023-02-24T05:35:27;23.60;;;8.80;;
75552;SDS011;64136;53.118;17.996;2023-02-24T05:37:53;27.60;;;9.00;;
75552;SDS011;64136;53.118;17.996;2023-02-24T05:40:20;23.90;;;7.80;;
75552;SDS011;64136;53.118;17.996;2023-02-24T05:42:49;20.70;;;9.30;;
75552;SDS011;64136;53.118;17.996;2023-02-24T05:45:16;21.30;;;8.20;;
75552;SDS011;64136;53.118;17.996;2023-02-24T05:47:43;26.80;;;8.90;;
75552;SDS011;64136;53.118;17.996;2023-02-24T05:50:12;28.50;;;9.80;;
75552;SDS011;64136;53.118;17.996;2023-02-24T05:52:38;25.40;;;9.40;;
75552;SDS011;64136;53.118;17.996;2023-02-24T05:55:05;24.20;;;9.30;;
75552;SDS011;64136;53.118;17.996;2023-02-24T05:57:38;25.60;;;9.00;;
75552;SDS011;64136;53.118;17.996;2023-02-24T06:00:06;20.90;;;8.40;;
75552;SDS011;64136;53.118;17.996;2023-02-24T06:02:39;21.30;;;8.60;;
75552;SDS011;64136;53.118;17.996;2023-02-24T06:05:08;19.00;;;8.30;;
75552;SDS011;64136;53.118;17.996;2023-02-24T06:07:46;23.00;;;7.40;;
75552;SDS011;64136;53.118;17.996;2023-02-24T06:10:12;15.90;;;6.70;;
75552;SDS011;64136;53.118;17.996;2023-02-24T06:12:40;22.60;;;7.40;;
75552;SDS011;64136;53.118;17.996;2023-02-24T06:15:06;30.90;;;11.60;;
75552;SDS011;64136;53.118;17.996;2023-02-24T06:17:33;28.90;;;11.20;;
75552;SDS011;64136;53.118;17.996;2023-02-24T06:19:59;17.40;;;8.80;;
75552;SDS011;64136;53.118;17.996;2023-02-24T06:22:26;21.60;;;8.00;;
75552;SDS011;64136;53.118;17.996;2023-02-24T06:24:53;14.30;;;6.90;;
75552;SDS011;64136;53.118;17.996;2023-02-24T06:27:21;12.20;;;5.10;;
75552;SDS011;64136;53.118;17.996;2023-02-24T06:29:49;9.30;;;4.60;;
75552;SDS011;64136;53.118;17.996;2023-02-24T06:32:17;9.90;;;5.20;;
75552;SDS011;64136;53.118;17.996;2023-02-24T06:34:46;8.70;;;3.50;;
75552;SDS011;64136;53.118;17.996;2023-02-24T06:37:13;4.00;;;2.10;;
75552;SDS011;64136;53.118;17.996;2023-02-24T06:39:40;7.30;;;2.40;;
75552;SDS011;64136;53.118;17.996;2023-02-24T06:42:07;8.10;;;3.90;;
75552;SDS011;64136;53.118;17.996;2023-02-24T06:44:36;6.60;;;3.80;;
75552;SDS011;64136;53.118;17.996;2023-02-24T06:47:05;8.90;;;5.10;;
75552;SDS011;64136;53.118;17.996;2023-02-24T06:49:33;5.00;;;2.40;;
75552;SDS011;64136;53.118;17.996;2023-02-24T06:52:00;5.10;;;2.60;;
75552;SDS011;64136;53.118;17.996;2023-02-24T06:54:26;8.20;;;3.60;;
75552;SDS011;64136;53.118;17.996;2023-02-24T06:56:59;12.00;;;6.10;;
75552;SDS011;64136;53.118;17.996;2023-02-24T06:59:25;6.10;;;3.10;;
75552;SDS011;64136;53.118;17.996;2023-02-24T07:01:54;5.50;;;2.80;;
75552;SDS011;64136;53.118;17.996;2023-02-24T07:04:24;5.20;;;3.00;;
75552;SDS011;64136;53.118;17.996;2023-02-24T07:06:54;7.40;;;4.30;;
75552;SDS011;64136;53.118;17.996;2023-02-24T07:09:24;8.60;;;5.20;;
75552;SDS011;64136;53.118;17.996;2023-02-24T07:12:01;7.00;;;2.60;;
75552;SDS011;64136;53.118;17.996;2023-02-24T07:14:30;7.00;;;3.70;;
75552;SDS011;64136;53.118;17.996;2023-02-24T07:17:00;7.50;;;3.20;;
75552;SDS011;64136;53.118;17.996;2023-02-24T07:19:29;12.60;;;7.40;;
75552;SDS011;64136;53.118;17.996;2023-02-24T07:22:03;7.30;;;3.60;;
75552;SDS011;64136;53.118;17.996;2023-02-24T07:24:50;8.40;;;2.80;;
75552;SDS011;64136;53.118;17.996;2023-02-24T07:27:25;7.10;;;2.80;;
75552;SDS011;64136;53.118;17.996;2023-02-24T07:37:14;7.00;;;3.20;;
75552;SDS011;64136;53.118;17.996;2023-02-24T07:40:02;7.70;;;2.50;;
75552;SDS011;64136;53.118;17.996;2023-02-24T07:42:59;4.30;;;2.20;;
75552;SDS011;64136;53.118;17.996;2023-02-24T07:45:27;8.50;;;3.60;;
75552;SDS011;64136;53.118;17.996;2023-02-24T07:50:29;5.10;;;3.00;;
75552;SDS011;64136;53.118;17.996;2023-02-24T07:54:03;11.00;;;3.80;;
75552;SDS011;64136;53.118;17.996;2023-02-24T07:56:46;11.40;;;4.80;;
75552;SDS011;64136;53.118;17.996;2023-02-24T07:59:25;8.90;;;2.20;;
75552;SDS011;64136;53.118;17.996;2023-02-24T08:01:59;4.60;;;2.20;;
75552;SDS011;64136;53.118;17.996;2023-02-24T08:04:29;6.30;;;2.50;;
75552;SDS011;64136;53.118;17.996;2023-02-24T08:09:29;8.00;;;2.30;;
75552;SDS011;64136;53.118;17.996;2023-02-24T08:12:02;9.80;;;1.70;;
75552;SDS011;64136;53.118;17.996;2023-02-24T08:14:29;6.40;;;2.50;;
75552;SDS011;64136;53.118;17.996;2023-02-24T08:17:10;9.90;;;2.70;;
75552;SDS011;64136;53.118;17.996;2023-02-24T08:19:37;4.40;;;2.10;;
75552;SDS011;64136;53.118;17.996;2023-02-24T08:22:05;6.30;;;2.10;;
75552;SDS011;64136;53.118;17.996;2023-02-24T08:24:54;10.60;;;3.60;;
75552;SDS011;64136;53.118;17.996;2023-02-24T08:27:26;12.50;;;4.10;;
75552;SDS011;64136;53.118;17.996;2023-02-24T08:29:55;8.40;;;2.60;;
75552;SDS011;64136;53.118;17.996;2023-02-24T08:32:24;11.50;;;3.60;;
75552;SDS011;64136;53.118;17.996;2023-02-24T08:35:02;11.40;;;2.90;;
75552;SDS011;64136;53.118;17.996;2023-02-24T08:37:31;7.10;;;3.00;;
75552;SDS011;64136;53.118;17.996;2023-02-24T08:40:08;11.50;;;4.20;;
75552;SDS011;64136;53.118;17.996;2023-02-24T08:45:41;7.50;;;3.00;;
75552;SDS011;64136;53.118;17.996;2023-02-24T08:48:30;6.70;;;2.20;;
75552;SDS011;64136;53.118;17.996;2023-02-24T08:51:13;10.00;;;2.80;;
75552;SDS011;64136;53.118;17.996;2023-02-24T08:53:58;9.20;;;3.00;;
75552;SDS011;64136;53.118;17.996;2023-02-24T08:56:31;18.10;;;5.40;;
75552;SDS011;64136;53.118;17.996;2023-02-24T08:59:25;10.40;;;3.30;;
